This is the latest recevied weather packets stored in our database for station/object NI4CE-11. If no packets are shown the sender has not sent any weather packets the latest 10 day(s).
| Time | Temp. | Humidity | Pressure | Rain* | Wind** | Luminosity | Snow |
|---|---|---|---|---|---|---|---|
| 1778060756 | 20° C | 100% | 1015.9 hPa | 0 mm | - | - | - |
| 1778060684 | 22.22° C | 100% | 1015.8 hPa | 0 mm | - | - | - |
| 1778060384 | 20° C | 100% | 1015.9 hPa | 0 mm | - | - | - |
| 1778060276 | 20.56° C | 100% | 1015.9 hPa | 0 mm | - | - | - |
| 1778060084 | 20.56° C | 100% | 1015.9 hPa | 0 mm | - | - | - |
| 1778059880 | 21.11° C | 100% | 1015.7 hPa | 0 mm | - | - | - |
| 1778059784 | 21.11° C | 100% | 1015.8 hPa | 0 mm | - | - | - |
| 1778059484 | 20° C | 100% | 1015.7 hPa | 0 mm | - | - | - |
| 1778059230 | 21.11° C | 100% | 1015.7 hPa | 0 mm | - | - | - |
| 1778059184 | 21.11° C | 100% | 1015.7 hPa | 0 mm | - | - | - |
| 1778058972 | 22.22° C | 100% | 1015.6 hPa | 0 mm | - | - | - |
| 1778058888 | 20° C | 100% | 1015.7 hPa | 0 mm | - | - | - |
| 1778058884 | 22.22° C | 100% | 1015.6 hPa | 0 mm | - | - | - |
| 1778058584 | 20° C | 100% | 1015.7 hPa | 0 mm | - | - | - |
| 1778058486 | 21.67° C | 100% | 1015.8 hPa | 0 mm | - | - | - |
| 1778058448 | 21.67° C | 100% | 1015.7 hPa | 0 mm | - | - | - |
| 1778058284 | 21.67° C | 100% | 1015.7 hPa | 0 mm | - | - | - |
| 1778058181 | 20° C | 100% | 1015.8 hPa | 0 mm | - | - | - |
| 1778057984 | 21.67° C | 100% | 1015.8 hPa | 0 mm | - | - | - |
| 1778057793 | 20° C | 100% | 1015.8 hPa | 0 mm | - | - | - |
| 1778057684 | 20° C | 100% | 1015.8 hPa | 0 mm | - | - | - |
| 1778057384 | 22.22° C | 100% | 1015.7 hPa | 0 mm | - | - | - |
| 1778057084 | 20.56° C | 100% | 1015.7 hPa | 0 mm | - | - | - |
| 1778056824 | 19.44° C | 100% | 1015.8 hPa | 0 mm | - | - | - |
| 1778056784 | 19.44° C | 100% | 1015.8 hPa | 0 mm | - | - | - |
* Rain latest hour (hover to see other rain measurements)
** Current wind speed in m/s (hover to see current wind gust speed)